createdAt,value
2018-11-11T07:22:25.184Z,47.77
2018-11-11T07:24:53.435Z,51.17
2018-11-11T07:27:21.657Z,49.70
2018-11-11T07:29:49.882Z,45.07
2018-11-11T07:32:18.128Z,46.03
2018-11-11T07:34:46.352Z,47.93
2018-11-11T07:37:14.589Z,43.60
2018-11-11T07:39:42.800Z,41.97
2018-11-11T07:42:11.107Z,41.53
2018-11-11T07:44:39.305Z,44.57
2018-11-11T07:47:07.544Z,47.50
2018-11-11T07:49:35.768Z,44.17
2018-11-11T07:52:04.049Z,44.87
2018-11-11T07:54:32.303Z,45.90
2018-11-11T07:57:04.543Z,45.23
2018-11-11T07:59:32.756Z,42.30
2018-11-11T08:02:01.102Z,45.10
2018-11-11T08:04:29.255Z,43.87
2018-11-11T08:06:57.496Z,43.33
2018-11-11T08:09:25.756Z,44.63
2018-11-11T08:11:58.589Z,41.73
2018-11-11T08:14:27.252Z,45.23
2018-11-11T08:16:55.677Z,43.37
2018-11-11T08:19:23.800Z,44.13
2018-11-11T08:21:52.090Z,43.23
2018-11-11T08:24:20.604Z,45.63
2018-11-11T08:26:49.599Z,47.17
2018-11-11T08:29:17.921Z,44.10
2018-11-11T08:31:46.174Z,47.60
2018-11-11T08:34:14.399Z,47.17
2018-11-11T08:36:42.648Z,45.13
2018-11-11T08:39:12.056Z,42.03
2018-11-11T08:41:42.377Z,43.17
2018-11-11T08:44:11.107Z,45.70
2018-11-11T08:46:40.804Z,43.53
2018-11-11T08:49:09.619Z,48.57
2018-11-11T08:51:37.864Z,45.57
2018-11-11T08:54:06.268Z,44.57
2018-11-11T08:56:34.532Z,42.20
2018-11-11T08:59:02.787Z,47.73
2018-11-11T09:01:31.068Z,42.70
2018-11-11T09:03:59.300Z,45.33
2018-11-11T09:06:27.552Z,42.80
2018-11-11T09:08:55.787Z,40.67
2018-11-11T09:11:24.088Z,41.00
2018-11-11T09:13:52.292Z,42.70
2018-11-11T09:16:20.531Z,45.10
2018-11-11T09:18:49.067Z,38.57
2018-11-11T09:21:17.296Z,40.60
2018-11-11T09:23:45.645Z,37.80
2018-11-11T09:26:13.876Z,40.50
2018-11-11T09:28:42.260Z,40.43
2018-11-11T09:31:10.589Z,44.87
2018-11-11T09:33:38.841Z,46.93
2018-11-11T09:36:07.457Z,41.30
2018-11-11T09:38:35.684Z,42.33
2018-11-11T09:41:03.944Z,43.53
2018-11-11T09:43:32.208Z,43.60
2018-11-11T09:46:00.442Z,49.10
2018-11-11T09:48:28.684Z,43.90
2018-11-11T09:50:56.908Z,43.43
2018-11-11T09:53:25.344Z,41.73
2018-11-11T09:55:53.575Z,43.23
2018-11-11T09:58:21.828Z,42.93
2018-11-11T10:00:50.053Z,45.87
2018-11-11T10:03:26.687Z,39.80
2018-11-11T10:06:02.420Z,41.80
2018-11-11T10:10:36.780Z,45.43
2018-11-11T10:13:10.951Z,47.10
2018-11-11T10:15:51.979Z,44.97
2018-11-11T10:18:24.101Z,53.20
2018-11-11T10:20:58.003Z,52.07
2018-11-11T10:23:30.304Z,41.20
2018-11-11T10:26:05.684Z,46.23
2018-11-11T10:28:37.868Z,47.90
2018-11-11T10:31:16.817Z,38.87
2018-11-11T10:33:55.984Z,34.90
2018-11-11T10:36:32.272Z,33.03
2018-11-11T10:39:04.928Z,30.57
2018-11-11T10:41:50.469Z,33.70
2018-11-11T10:44:23.656Z,32.53
2018-11-11T10:46:55.487Z,33.03
2018-11-11T10:49:32.860Z,28.93
2018-11-11T10:52:01.085Z,33.57
2018-11-11T10:54:29.403Z,42.60
2018-11-11T10:56:57.573Z,36.47
2018-11-11T10:59:25.909Z,46.77
2018-11-11T11:01:59.448Z,33.03
2018-11-11T11:04:27.702Z,33.20
2018-11-11T11:07:01.327Z,29.20
2018-11-11T11:09:29.581Z,33.00
2018-11-11T11:11:58.925Z,30.53
2018-11-11T11:14:27.174Z,32.90
2018-11-11T11:16:55.413Z,30.17
2018-11-11T11:19:23.657Z,31.67
2018-11-11T11:21:51.896Z,30.97
2018-11-11T11:24:20.158Z,28.80
2018-11-11T11:26:48.375Z,29.50
2018-11-11T11:29:16.624Z,30.30
2018-11-11T11:31:44.903Z,30.37
2018-11-11T11:34:13.116Z,35.30
2018-11-11T11:36:41.381Z,27.73
2018-11-11T11:39:10.118Z,27.90
2018-11-11T11:41:38.412Z,29.20
2018-11-11T11:44:06.832Z,31.73
2018-11-11T11:46:35.136Z,29.77
2018-11-11T11:49:03.373Z,26.50
2018-11-11T11:51:31.676Z,28.20
2018-11-11T11:54:00.197Z,28.23
2018-11-11T11:56:28.457Z,27.87
2018-11-11T11:58:56.694Z,28.90
2018-11-11T12:01:24.960Z,24.40
2018-11-11T12:03:53.199Z,28.97
2018-11-11T12:06:21.447Z,26.97
2018-11-11T12:08:49.845Z,29.30
2018-11-11T12:11:17.973Z,27.07
2018-11-11T12:13:46.189Z,26.03
2018-11-11T12:16:14.436Z,29.70
2018-11-11T12:18:42.678Z,26.47
2018-11-11T12:21:10.920Z,30.50
2018-11-11T12:23:39.149Z,28.63
2018-11-11T12:26:07.408Z,24.80
2018-11-11T12:28:35.631Z,25.23
2018-11-11T12:31:03.880Z,43.67
2018-11-11T12:33:32.112Z,28.97
2018-11-11T12:36:00.358Z,28.77
2018-11-11T12:38:28.578Z,93.77
2018-11-11T12:40:56.840Z,55.47
2018-11-11T12:43:25.085Z,33.70
2018-11-11T12:45:53.344Z,27.37
2018-11-11T12:48:21.568Z,30.13
2018-11-11T12:50:49.826Z,27.53
2018-11-11T12:53:18.052Z,29.23
2018-11-11T12:55:46.310Z,26.23
2018-11-11T12:58:14.772Z,28.97
2018-11-11T13:00:43.055Z,29.60
2018-11-11T13:03:11.272Z,30.53
2018-11-11T13:05:39.527Z,28.37
2018-11-11T13:08:07.815Z,36.30
2018-11-11T13:10:36.093Z,48.70
2018-11-11T13:13:04.607Z,30.33
2018-11-11T13:15:32.860Z,32.63
2018-11-11T13:18:01.093Z,77.27
2018-11-11T13:20:29.346Z,40.60
2018-11-11T13:22:57.645Z,46.03
2018-11-11T13:25:25.827Z,31.53
2018-11-11T13:27:54.068Z,25.97
2018-11-11T13:30:22.332Z,26.03
2018-11-11T13:32:50.569Z,24.10
2018-11-11T13:35:18.799Z,24.03
2018-11-11T13:37:47.087Z,22.97
2018-11-11T13:40:16.521Z,29.80
2018-11-11T13:42:44.793Z,24.90
2018-11-11T13:45:16.173Z,25.97
2018-11-11T13:47:45.452Z,22.40
2018-11-11T13:50:21.432Z,20.67
2018-11-11T13:52:49.933Z,22.70
2018-11-11T13:55:18.644Z,30.97
2018-11-11T13:57:47.400Z,24.47
2018-11-11T14:00:26.993Z,26.10
2018-11-11T14:02:55.452Z,25.90
2018-11-11T14:05:23.672Z,25.67
2018-11-11T14:07:51.911Z,24.17
2018-11-11T14:10:20.139Z,27.90
2018-11-11T14:12:48.388Z,23.63
2018-11-11T14:15:21.560Z,26.17
2018-11-11T14:17:50.141Z,24.47
2018-11-11T14:20:19.638Z,24.37
2018-11-11T14:22:48.704Z,26.63
2018-11-11T14:25:20.812Z,24.17
2018-11-11T14:27:48.991Z,25.07
2018-11-11T14:30:18.608Z,26.23
2018-11-11T14:32:47.624Z,25.57
2018-11-11T14:35:15.854Z,28.13
2018-11-11T14:37:44.284Z,24.50
2018-11-11T14:40:15.780Z,25.97
2018-11-11T14:42:44.190Z,24.67
2018-11-11T14:45:13.504Z,26.70
2018-11-11T14:47:42.535Z,26.83
2018-11-11T14:50:11.892Z,28.23
2018-11-11T14:52:40.350Z,25.77
2018-11-11T14:55:10.486Z,33.47
2018-11-11T14:57:38.728Z,29.90
2018-11-11T15:00:10.960Z,32.93
2018-11-11T15:02:39.241Z,32.47
2018-11-11T15:05:09.368Z,36.63
2018-11-11T15:07:37.615Z,33.63
2018-11-11T15:10:07.168Z,35.40
2018-11-11T15:12:35.565Z,28.80
2018-11-11T15:15:03.804Z,32.00
2018-11-11T15:17:32.055Z,33.37
2018-11-11T15:20:00.308Z,35.13
2018-11-11T15:22:28.547Z,45.23
2018-11-11T15:24:56.776Z,37.50
2018-11-11T15:27:25.023Z,32.97
2018-11-11T15:29:53.244Z,36.70
2018-11-11T15:32:21.487Z,35.80
2018-11-11T15:34:49.731Z,31.97
2018-11-11T15:37:17.972Z,31.07
2018-11-11T15:39:46.185Z,29.10
2018-11-11T15:42:14.497Z,31.67
2018-11-11T15:44:42.697Z,33.67
2018-11-11T15:47:10.952Z,29.10
2018-11-11T15:49:39.184Z,27.83
2018-11-11T15:52:07.474Z,28.37
2018-11-11T15:54:35.673Z,34.00
2018-11-11T15:57:03.948Z,28.83
2018-11-11T15:59:32.169Z,29.37
2018-11-11T16:02:00.405Z,26.43
2018-11-11T16:04:28.632Z,31.53
2018-11-11T16:06:56.891Z,31.63
2018-11-11T16:09:25.133Z,27.27
2018-11-11T16:11:53.390Z,28.70
2018-11-11T16:14:21.640Z,32.90
2018-11-11T16:16:49.971Z,31.33
2018-11-11T16:19:18.209Z,29.73
2018-11-11T16:21:46.487Z,28.50
2018-11-11T16:24:14.726Z,24.90
2018-11-11T16:26:42.952Z,25.07
2018-11-11T16:29:11.196Z,23.03
2018-11-11T16:31:39.424Z,29.43
2018-11-11T16:34:08.066Z,29.57
2018-11-11T16:36:36.358Z,30.17
2018-11-11T16:39:07.485Z,29.63
2018-11-11T16:41:35.916Z,27.07
2018-11-11T16:44:03.972Z,32.70
2018-11-11T16:46:32.192Z,76.27
2018-11-11T16:49:00.444Z,56.87
2018-11-11T16:51:28.735Z,49.97
2018-11-11T16:53:56.971Z,48.70
2018-11-11T16:56:25.196Z,50.43
2018-11-11T16:58:53.436Z,58.50
2018-11-11T17:01:21.652Z,55.90
2018-11-11T17:03:49.895Z,58.87
2018-11-11T17:06:18.140Z,64.43
2018-11-11T17:08:46.380Z,59.57
2018-11-11T17:11:14.604Z,69.23
2018-11-11T17:13:42.856Z,66.10
2018-11-11T17:16:11.088Z,68.33
2018-11-11T17:18:39.359Z,66.40
2018-11-11T17:21:07.652Z,59.90
2018-11-11T17:23:35.864Z,56.30
2018-11-11T17:26:04.090Z,60.23
2018-11-11T17:28:32.332Z,50.23
2018-11-11T17:31:00.565Z,51.43
2018-11-11T17:33:28.847Z,47.50
2018-11-11T17:35:57.106Z,53.17
2018-11-11T17:38:25.353Z,81.90
2018-11-11T17:40:53.601Z,60.87
2018-11-11T17:43:21.877Z,66.43
2018-11-11T17:45:50.108Z,52.90
2018-11-11T17:48:18.391Z,56.70
2018-11-11T17:50:46.594Z,59.10
2018-11-11T17:53:14.840Z,56.53
2018-11-11T17:55:43.172Z,60.10
2018-11-11T17:58:11.333Z,51.43
2018-11-11T18:00:39.577Z,51.77
2018-11-11T18:03:07.852Z,40.43
2018-11-11T18:05:36.072Z,46.63
2018-11-11T18:08:04.545Z,38.07
2018-11-11T18:10:32.827Z,44.27
2018-11-11T18:13:01.011Z,39.43
2018-11-11T18:15:30.488Z,43.10
2018-11-11T18:17:58.712Z,40.73
2018-11-11T18:20:28.202Z,37.07
2018-11-11T18:22:57.266Z,37.57
2018-11-11T18:25:25.515Z,32.93
2018-11-11T18:27:53.795Z,38.43
2018-11-11T18:30:27.547Z,37.37
2018-11-11T18:32:55.788Z,35.37
2018-11-11T18:35:24.041Z,31.93
2018-11-11T18:37:52.354Z,32.93
2018-11-11T18:40:21.987Z,32.30
2018-11-11T18:42:50.245Z,39.73
2018-11-11T18:45:21.807Z,36.83
2018-11-11T18:47:50.508Z,36.60
2018-11-11T18:50:20.325Z,33.80
2018-11-11T18:52:48.568Z,35.73
2018-11-11T18:55:16.809Z,36.87
2018-11-11T18:57:45.372Z,38.13
2018-11-11T19:00:22.080Z,36.50
2018-11-11T19:02:51.076Z,35.80
2018-11-11T19:05:19.964Z,38.00
2018-11-11T19:07:48.488Z,35.10
2018-11-11T19:10:18.222Z,37.50
2018-11-11T19:12:47.101Z,33.27
2018-11-11T19:15:16.292Z,39.23
2018-11-11T19:17:45.164Z,36.50
2018-11-11T19:20:14.620Z,34.60
2018-11-11T19:22:42.911Z,32.10
2018-11-11T19:25:13.137Z,33.33
2018-11-11T19:27:42.084Z,33.80
2018-11-11T19:30:11.261Z,34.93
2018-11-11T19:32:40.296Z,37.07
2018-11-11T19:35:09.193Z,38.23
2018-11-11T19:37:37.416Z,38.30
2018-11-11T19:40:08.326Z,37.67
2018-11-11T19:42:36.573Z,35.60
2018-11-11T19:45:05.833Z,40.23
2018-11-11T19:47:34.095Z,38.27
2018-11-11T19:50:02.332Z,39.70
2018-11-11T19:52:30.568Z,38.17
2018-11-11T19:54:58.800Z,38.07
2018-11-11T19:57:27.033Z,37.13
2018-11-11T19:59:55.277Z,36.83
2018-11-11T20:02:23.560Z,35.93
2018-11-11T20:04:51.781Z,38.87
2018-11-11T20:07:20.008Z,37.47
2018-11-11T20:09:48.247Z,40.93
2018-11-11T20:12:16.477Z,38.63
2018-11-11T20:14:44.724Z,36.93
2018-11-11T20:17:12.976Z,38.10
2018-11-11T20:19:41.344Z,39.50
2018-11-11T20:22:09.596Z,35.33
2018-11-11T20:24:37.828Z,37.47
2018-11-11T20:27:06.081Z,41.47
2018-11-11T20:29:34.308Z,38.93
2018-11-11T20:32:02.565Z,41.57
2018-11-11T20:34:30.800Z,42.50
2018-11-11T20:36:59.110Z,37.37
2018-11-11T20:39:27.312Z,39.57
2018-11-11T20:41:55.568Z,38.80
2018-11-11T20:44:23.798Z,39.00
2018-11-11T20:46:52.037Z,45.83
2018-11-11T20:49:20.264Z,40.17
2018-11-11T20:51:48.508Z,41.57
2018-11-11T20:54:16.732Z,41.70
2018-11-11T20:56:45.086Z,41.60
2018-11-11T20:59:13.212Z,42.87
